createdAt,value
2018-08-28T00:00:20.929Z,13.22
2018-08-28T00:01:20.884Z,13.28
2018-08-28T00:02:20.830Z,13.28
2018-08-28T00:03:20.823Z,13.36
2018-08-28T00:04:20.771Z,13.44
2018-08-28T00:05:20.727Z,13.44
2018-08-28T00:06:20.704Z,13.46
2018-08-28T00:07:20.679Z,13.57
2018-08-28T00:08:20.629Z,13.60
2018-08-28T00:09:20.584Z,13.57
2018-08-28T00:10:20.553Z,13.63
2018-08-28T00:11:20.526Z,13.70
2018-08-28T00:12:20.510Z,13.62
2018-08-28T00:13:20.476Z,13.70
2018-08-28T00:14:20.418Z,13.66
2018-08-28T00:15:20.376Z,13.63
2018-08-28T00:16:20.340Z,13.67
2018-08-28T00:17:20.300Z,13.70
2018-08-28T00:18:20.291Z,13.87
2018-08-28T00:19:20.240Z,13.73
2018-08-28T00:20:20.205Z,13.88
2018-08-28T00:21:20.157Z,13.88
2018-08-28T00:23:58.198Z,13.91
2018-08-28T00:24:51.934Z,13.87
2018-08-28T00:26:45.538Z,13.88
2018-08-28T00:27:44.808Z,13.91
2018-08-28T00:29:38.241Z,13.97
2018-08-28T00:30:37.966Z,13.89
2018-08-28T00:34:05.869Z,13.91
2018-08-28T00:35:05.064Z,13.88
2018-08-28T00:36:58.114Z,14.02
2018-08-28T00:37:57.649Z,14.03
2018-08-28T00:39:50.961Z,14.12
2018-08-28T00:40:50.571Z,14.07
2018-08-28T00:42:43.985Z,14.20
2018-08-28T00:43:43.468Z,14.15
2018-08-28T00:45:37.343Z,14.18
2018-08-28T00:46:37.177Z,14.12
2018-08-28T00:48:30.420Z,14.09
2018-08-28T00:49:29.881Z,14.03
2018-08-28T00:51:23.226Z,14.12
2018-08-28T00:52:22.880Z,14.20
2018-08-28T00:54:16.855Z,14.03
2018-08-28T00:55:15.908Z,13.89
2018-08-28T00:57:09.215Z,13.79
2018-08-28T00:58:08.720Z,13.82
2018-08-28T01:00:02.310Z,13.77
2018-08-28T01:01:01.732Z,13.63
2018-08-28T01:02:57.236Z,13.49
2018-08-28T01:03:56.637Z,13.57
2018-08-28T01:05:50.141Z,13.51
2018-08-28T01:06:49.748Z,13.62
2018-08-28T01:08:43.051Z,13.67
2018-08-28T01:09:42.952Z,13.54
2018-08-28T01:11:36.611Z,13.51
2018-08-28T01:12:36.485Z,13.44
2018-08-28T01:14:29.509Z,13.46
2018-08-28T01:15:29.090Z,13.55
2018-08-28T01:17:22.453Z,13.48
2018-08-28T01:18:21.994Z,13.51
2018-08-28T01:20:27.942Z,13.60
2018-08-28T01:21:27.503Z,13.60
2018-08-28T01:23:20.641Z,13.60
2018-08-28T01:24:20.062Z,13.62
2018-08-28T01:26:13.457Z,13.71
2018-08-28T01:27:13.097Z,13.71
2018-08-28T01:29:08.017Z,13.81
2018-08-28T01:30:07.689Z,13.73
2018-08-28T01:32:01.397Z,13.78
2018-08-28T01:33:00.487Z,13.71
2018-08-28T01:34:53.965Z,13.78
2018-08-28T01:35:53.550Z,13.84
2018-08-28T01:37:47.044Z,13.88
2018-08-28T01:38:46.493Z,13.87
2018-08-28T01:40:41.364Z,13.91
2018-08-28T01:41:40.856Z,13.91
2018-08-28T01:43:34.281Z,14.04
2018-08-28T01:44:33.835Z,14.04
2018-08-28T01:46:41.988Z,14.02
2018-08-28T01:47:41.737Z,13.88
2018-08-28T01:49:36.483Z,13.96
2018-08-28T01:50:36.396Z,13.87
2018-08-28T01:52:29.509Z,13.88
2018-08-28T01:53:29.072Z,13.82
2018-08-28T01:55:22.805Z,13.79
2018-08-28T01:56:22.531Z,13.82
2018-08-28T01:58:15.900Z,13.77
2018-08-28T01:59:15.792Z,13.71
2018-08-28T02:01:09.387Z,13.69
2018-08-28T02:02:08.930Z,13.62
2018-08-28T02:04:02.307Z,13.62
2018-08-28T02:05:01.812Z,13.66
2018-08-28T02:06:56.848Z,13.66
2018-08-28T02:07:56.385Z,13.62
2018-08-28T02:09:50.297Z,13.55
2018-08-28T02:10:49.361Z,13.63
2018-08-28T02:12:42.688Z,13.59
2018-08-28T02:13:42.390Z,13.59
2018-08-28T02:15:36.327Z,13.46
2018-08-28T02:16:35.843Z,13.42
2018-08-28T02:18:29.246Z,13.30
2018-08-28T02:19:28.938Z,13.23
2018-08-28T02:21:22.809Z,13.23
2018-08-28T02:22:22.543Z,13.41
2018-08-28T02:24:17.205Z,13.30
2018-08-28T02:25:16.921Z,13.26
2018-08-28T02:27:10.256Z,13.20
2018-08-28T02:28:10.117Z,13.32
2018-08-28T02:30:03.607Z,13.44
2018-08-28T02:31:03.317Z,13.42
2018-08-28T02:32:56.674Z,13.38
2018-08-28T02:33:56.239Z,13.29
2018-08-28T02:35:50.019Z,13.29
2018-08-28T02:36:49.691Z,13.25
2018-08-28T02:38:43.133Z,13.23
2018-08-28T02:39:42.848Z,13.11
2018-08-28T02:41:35.988Z,13.14
2018-08-28T02:42:35.617Z,13.17
2018-08-28T02:44:30.600Z,13.25
2018-08-28T02:45:30.450Z,13.41
2018-08-28T02:47:23.486Z,13.60
2018-08-28T02:48:23.152Z,13.67
2018-08-28T02:50:16.967Z,13.69
2018-08-28T02:51:15.983Z,13.64
2018-08-28T02:53:09.874Z,13.67
2018-08-28T02:54:09.074Z,13.55
2018-08-28T02:56:02.369Z,13.62
2018-08-28T02:57:01.975Z,13.63
2018-08-28T02:58:57.368Z,13.62
2018-08-28T02:59:56.465Z,13.64
2018-08-28T03:01:49.883Z,13.63
2018-08-28T03:02:49.781Z,13.63
2018-08-28T03:04:43.283Z,13.69
2018-08-28T03:05:43.020Z,13.70
2018-08-28T03:07:36.170Z,13.78
2018-08-28T03:08:35.804Z,13.79
2018-08-28T03:10:29.173Z,13.78
2018-08-28T03:11:28.865Z,13.84
2018-08-28T03:13:22.635Z,13.89
2018-08-28T03:14:22.182Z,13.88
2018-08-28T03:16:15.507Z,13.89
2018-08-28T03:17:15.150Z,13.87
2018-08-28T03:19:10.590Z,13.89
2018-08-28T03:20:09.680Z,13.82
2018-08-28T03:22:03.014Z,13.87
2018-08-28T03:23:02.701Z,13.77
2018-08-28T03:24:56.505Z,13.87
2018-08-28T03:25:55.576Z,13.87
2018-08-28T03:27:48.882Z,13.89
2018-08-28T03:28:48.481Z,13.99
2018-08-28T03:30:43.449Z,13.99
2018-08-28T03:31:43.424Z,14.09
2018-08-28T03:33:36.324Z,14.00
2018-08-28T03:34:35.975Z,13.97
2018-08-28T03:36:30.873Z,13.88
2018-08-28T03:37:30.292Z,13.87
2018-08-28T03:39:23.299Z,14.02
2018-08-28T03:40:23.307Z,14.04
2018-08-28T03:42:16.355Z,14.14
2018-08-28T03:43:15.941Z,14.14
2018-08-28T03:45:09.352Z,14.22
2018-08-28T03:46:08.989Z,14.20
2018-08-28T03:48:02.957Z,14.24
2018-08-28T03:49:02.563Z,14.24
2018-08-28T03:50:56.612Z,14.27
2018-08-28T03:51:57.223Z,14.33
2018-08-28T03:53:49.660Z,14.24
2018-08-28T03:54:49.559Z,14.17
2018-08-28T03:56:43.985Z,14.14
2018-08-28T03:57:43.138Z,14.25
2018-08-28T03:59:36.594Z,14.17
2018-08-28T04:00:36.337Z,14.28
2018-08-28T04:02:29.597Z,14.22
2018-08-28T04:03:29.153Z,14.17
2018-08-28T04:05:22.666Z,14.24
2018-08-28T04:06:22.485Z,14.28
2018-08-28T04:08:16.232Z,14.37
2018-08-28T04:09:16.114Z,14.45
2018-08-28T04:11:09.991Z,14.37
2018-08-28T04:12:08.894Z,14.54
2018-08-28T04:14:02.368Z,14.39
2018-08-28T04:15:02.082Z,14.40
2018-08-28T04:16:55.906Z,14.37
2018-08-28T04:17:55.813Z,14.36
2018-08-28T04:19:48.758Z,14.24
2018-08-28T04:20:48.501Z,14.28
2018-08-28T04:22:41.952Z,14.25
2018-08-28T04:23:41.673Z,14.25
2018-08-28T04:25:35.911Z,14.24
2018-08-28T04:26:35.119Z,14.29
2018-08-28T04:28:28.477Z,14.27
2018-08-28T04:29:28.402Z,14.24
2018-08-28T04:31:21.940Z,14.22
2018-08-28T04:32:21.048Z,14.24
2018-08-28T04:34:14.510Z,14.20
2018-08-28T04:35:14.109Z,14.25
2018-08-28T04:37:08.126Z,14.28
2018-08-28T04:38:08.002Z,14.27
2018-08-28T04:40:01.230Z,14.29
2018-08-28T04:41:00.890Z,14.32
2018-08-28T04:42:54.861Z,14.32
2018-08-28T04:43:54.384Z,14.32
2018-08-28T04:45:52.546Z,14.35
2018-08-28T04:46:52.754Z,14.32
2018-08-28T04:48:45.791Z,14.40
2018-08-28T04:49:45.685Z,14.42
2018-08-28T04:51:39.258Z,14.54
2018-08-28T04:52:39.295Z,14.51
2018-08-28T04:54:33.760Z,14.64
2018-08-28T04:55:33.396Z,14.57
2018-08-28T04:57:26.751Z,14.62
2018-08-28T04:58:26.279Z,14.60
2018-08-28T05:00:19.573Z,14.57
2018-08-28T05:01:19.272Z,14.68
2018-08-28T05:03:14.243Z,14.60
2018-08-28T05:04:13.771Z,14.72
2018-08-28T05:06:07.564Z,14.73
2018-08-28T05:07:07.311Z,14.73
2018-08-28T05:09:00.644Z,14.89
2018-08-28T05:10:00.473Z,14.88
2018-08-28T05:11:55.606Z,14.84
2018-08-28T05:12:54.991Z,14.95
2018-08-28T05:14:48.094Z,14.96
2018-08-28T05:15:47.936Z,15.01
2018-08-28T05:17:43.025Z,15.13
2018-08-28T05:18:42.460Z,15.10
2018-08-28T05:20:35.551Z,15.16
2018-08-28T05:21:35.193Z,15.16
2018-08-28T05:23:28.495Z,15.29
2018-08-28T05:24:28.292Z,15.23
2018-08-28T05:26:21.360Z,15.41
2018-08-28T05:27:20.924Z,15.43
2018-08-28T05:29:14.289Z,15.49
2018-08-28T05:30:14.242Z,15.46
2018-08-28T05:32:07.298Z,15.56
2018-08-28T05:33:07.182Z,15.51
2018-08-28T05:35:00.211Z,15.67
2018-08-28T05:36:00.215Z,15.80
2018-08-28T05:37:53.325Z,15.90
2018-08-28T05:38:53.748Z,15.80
2018-08-28T05:40:46.558Z,15.94
2018-08-28T05:41:46.201Z,15.90
2018-08-28T05:43:39.254Z,15.97
2018-08-28T05:44:38.762Z,15.96
2018-08-28T05:46:32.279Z,16.23
2018-08-28T05:47:31.800Z,16.28
2018-08-28T05:49:25.854Z,16.38
2018-08-28T05:50:25.286Z,16.49
2018-08-28T05:52:18.852Z,16.50
2018-08-28T05:53:18.064Z,16.50
2018-08-28T05:55:11.394Z,16.58
2018-08-28T05:56:11.357Z,16.70
2018-08-28T05:58:04.313Z,16.76
2018-08-28T05:59:04.194Z,16.66
2018-08-28T06:00:59.316Z,16.61
2018-08-28T06:01:58.717Z,16.66
2018-08-28T06:03:52.258Z,16.68
2018-08-28T06:04:52.211Z,16.71
2018-08-28T06:06:45.712Z,16.83
2018-08-28T06:07:46.182Z,16.91
2018-08-28T06:09:38.674Z,16.96
2018-08-28T06:10:38.369Z,17.03
2018-08-28T06:12:32.255Z,17.07
2018-08-28T06:13:31.296Z,17.21
2018-08-28T06:14:31.642Z,17.40
2018-08-28T06:15:32.068Z,17.37
2018-08-28T06:16:31.589Z,17.59
2018-08-28T06:17:31.564Z,17.64
2018-08-28T06:18:31.472Z,17.63
2018-08-28T06:19:32.003Z,17.72
2018-08-28T06:20:31.401Z,17.72
2018-08-28T06:21:31.897Z,17.64
2018-08-28T06:22:31.390Z,17.71
2018-08-28T06:23:31.282Z,17.70
2018-08-28T06:24:30.898Z,17.82
2018-08-28T06:25:31.308Z,17.92
2018-08-28T06:26:31.042Z,18.08
2018-08-28T06:27:30.837Z,18.03
2018-08-28T06:28:30.750Z,18.08
2018-08-28T06:29:31.102Z,18.08
2018-08-28T06:30:31.524Z,18.07
2018-08-28T06:31:31.055Z,18.15
2018-08-28T06:32:31.037Z,18.25
2018-08-28T06:33:31.023Z,18.25
2018-08-28T06:34:30.958Z,18.36
2018-08-28T06:35:30.467Z,18.32
2018-08-28T06:36:30.522Z,18.33
2018-08-28T06:37:30.487Z,18.44
2018-08-28T06:38:30.381Z,18.42
2018-08-28T06:39:30.353Z,18.54
2018-08-28T06:40:30.322Z,18.66
2018-08-28T06:41:30.314Z,18.76
2018-08-28T06:42:30.269Z,18.75
2018-08-28T06:43:30.280Z,18.76
2018-08-28T06:44:30.191Z,18.76
2018-08-28T06:45:30.235Z,18.72
2018-08-28T06:46:30.158Z,18.84
2018-08-28T06:47:30.150Z,18.90
2018-08-28T06:48:30.106Z,18.90
2018-08-28T06:49:30.066Z,18.94
2018-08-28T06:50:30.020Z,19.08
2018-08-28T06:51:30.669Z,19.08
2018-08-28T06:52:29.924Z,19.16
2018-08-28T06:53:29.919Z,19.28
2018-08-28T06:54:29.878Z,19.43
2018-08-28T06:55:29.858Z,19.31
2018-08-28T06:56:29.821Z,19.39
2018-08-28T06:57:29.816Z,19.40
2018-08-28T06:58:29.783Z,19.43
2018-08-28T06:59:29.717Z,19.54
2018-08-28T07:00:29.670Z,19.47
2018-08-28T07:01:29.638Z,19.62
2018-08-28T07:02:29.621Z,19.69
2018-08-28T07:03:29.569Z,19.74
2018-08-28T07:04:29.559Z,19.83
2018-08-28T07:05:29.529Z,19.69
2018-08-28T07:06:29.496Z,19.81
2018-08-28T07:07:29.469Z,19.74
2018-08-28T07:08:29.487Z,19.74
2018-08-28T07:09:29.380Z,19.63
2018-08-28T07:10:29.374Z,19.43
2018-08-28T07:11:29.351Z,19.39
2018-08-28T07:12:29.287Z,19.46
2018-08-28T07:13:29.269Z,19.59
2018-08-28T07:14:29.222Z,19.48
2018-08-28T07:15:29.190Z,19.78
2018-08-28T07:16:29.164Z,19.80
2018-08-28T07:17:29.135Z,19.78
2018-08-28T07:18:29.119Z,19.81
2018-08-28T07:19:29.086Z,19.71
2018-08-28T07:20:29.037Z,19.77
2018-08-28T07:21:29.025Z,19.74
2018-08-28T07:22:29.007Z,19.95
2018-08-28T07:23:28.940Z,19.98
2018-08-28T07:24:28.936Z,19.95
2018-08-28T07:25:28.928Z,19.96
2018-08-28T07:26:28.858Z,20.02
2018-08-28T07:27:28.838Z,20.08
2018-08-28T07:28:28.788Z,20.10
2018-08-28T07:29:28.762Z,20.05
2018-08-28T07:30:28.735Z,20.10
2018-08-28T07:31:28.831Z,20.01
2018-08-28T07:32:28.740Z,20.03
2018-08-28T07:33:28.647Z,19.87
2018-08-28T07:34:28.601Z,19.91
2018-08-28T07:35:28.582Z,19.94
2018-08-28T07:36:28.558Z,20.02
2018-08-28T07:37:28.569Z,20.28
2018-08-28T07:38:28.499Z,20.59
2018-08-28T07:39:28.459Z,20.64
2018-08-28T07:40:28.441Z,20.79
2018-08-28T07:41:28.400Z,21.04
2018-08-28T07:42:28.368Z,20.97
2018-08-28T07:43:28.341Z,20.98
2018-08-28T07:44:28.316Z,20.95
2018-08-28T07:45:28.308Z,20.85
2018-08-28T07:46:28.250Z,20.77
2018-08-28T07:47:28.211Z,20.79
2018-08-28T07:48:28.233Z,20.91
2018-08-28T07:49:28.147Z,20.89
2018-08-28T07:50:28.128Z,20.70
2018-08-28T07:51:28.085Z,20.87
2018-08-28T07:52:28.067Z,20.95
2018-08-28T07:53:28.043Z,21.07
2018-08-28T07:54:28.013Z,21.06
2018-08-28T07:55:27.969Z,20.79
2018-08-28T07:56:27.953Z,20.82
2018-08-28T07:57:27.916Z,21.06
2018-08-28T07:58:27.887Z,21.31
2018-08-28T07:59:27.854Z,21.34
2018-08-28T08:00:27.838Z,21.47
2018-08-28T08:01:27.873Z,21.84
2018-08-28T08:02:27.779Z,21.91
2018-08-28T08:03:27.732Z,22.03
2018-08-28T08:04:27.703Z,21.98
2018-08-28T08:05:27.677Z,21.71
2018-08-28T08:06:27.672Z,21.80
2018-08-28T08:07:27.634Z,21.68
2018-08-28T08:08:27.592Z,21.47
2018-08-28T08:09:27.569Z,21.42
2018-08-28T08:10:27.613Z,21.50
2018-08-28T08:11:27.502Z,21.49
2018-08-28T08:12:27.496Z,21.82
2018-08-28T08:13:27.470Z,21.13
2018-08-28T08:14:27.450Z,21.13
2018-08-28T08:15:27.409Z,21.37
2018-08-28T08:16:27.409Z,21.35
2018-08-28T08:17:27.339Z,21.38
2018-08-28T08:18:27.306Z,21.53
2018-08-28T08:19:27.283Z,21.69
2018-08-28T08:20:27.267Z,21.61
2018-08-28T08:21:27.219Z,21.49
2018-08-28T08:22:27.205Z,21.53
2018-08-28T08:23:27.193Z,21.25
2018-08-28T08:24:27.140Z,21.12
2018-08-28T08:25:27.110Z,21.19
2018-08-28T08:26:27.085Z,21.61
2018-08-28T08:27:27.058Z,21.62
2018-08-28T08:28:27.030Z,21.79
2018-08-28T08:29:27.012Z,21.59
2018-08-28T08:30:26.974Z,21.38
2018-08-28T08:31:26.939Z,21.43
2018-08-28T08:32:26.921Z,21.52
2018-08-28T08:33:26.936Z,22.02
2018-08-28T08:34:26.857Z,22.67
2018-08-28T08:35:26.893Z,22.91
2018-08-28T08:36:26.792Z,23.61
2018-08-28T08:37:26.790Z,22.91
2018-08-28T08:38:26.750Z,22.65
2018-08-28T08:39:26.723Z,22.24
2018-08-28T08:40:26.696Z,21.69
2018-08-28T08:41:26.674Z,21.54
2018-08-28T08:42:26.635Z,21.69
2018-08-28T08:43:26.608Z,21.88
2018-08-28T08:44:26.579Z,22.03
2018-08-28T08:45:26.561Z,22.58
2018-08-28T08:46:26.526Z,23.05
2018-08-28T08:47:26.493Z,23.57
2018-08-28T08:48:26.475Z,24.13
2018-08-28T08:49:26.454Z,24.64
2018-08-28T08:50:26.432Z,24.71
2018-08-28T08:51:26.414Z,25.02
2018-08-28T08:52:26.376Z,24.67
2018-08-28T08:53:26.338Z,23.84
2018-08-28T08:54:26.339Z,24.40
2018-08-28T08:55:26.328Z,24.16
2018-08-28T08:56:26.314Z,24.05
2018-08-28T08:57:26.334Z,23.68
2018-08-28T08:58:26.212Z,24.27
2018-08-28T08:59:26.188Z,24.95
2018-08-28T09:00:26.185Z,25.14
2018-08-28T09:01:26.139Z,25.60
2018-08-28T09:02:26.121Z,25.87
2018-08-28T09:03:26.098Z,25.76
2018-08-28T09:04:26.072Z,25.28
2018-08-28T09:05:26.049Z,25.15
2018-08-28T09:06:26.029Z,25.13
2018-08-28T09:07:26.001Z,25.20
2018-08-28T09:08:25.974Z,25.97
2018-08-28T09:09:25.947Z,26.67
2018-08-28T09:10:25.934Z,27.40
2018-08-28T09:11:25.903Z,28.24
2018-08-28T09:12:25.876Z,28.62
2018-08-28T09:13:25.868Z,28.41
2018-08-28T09:14:25.838Z,27.41
2018-08-28T09:15:25.819Z,27.69
2018-08-28T09:16:25.781Z,27.72
2018-08-28T09:17:25.771Z,27.41
2018-08-28T09:18:25.753Z,26.84
2018-08-28T09:19:25.837Z,26.48
2018-08-28T09:20:25.708Z,26.15
2018-08-28T09:21:25.679Z,26.18
2018-08-28T09:22:25.664Z,25.75
2018-08-28T09:23:25.636Z,26.18
2018-08-28T09:24:25.611Z,26.47
2018-08-28T09:25:25.619Z,27.46
2018-08-28T09:26:25.557Z,27.97
2018-08-28T09:27:25.536Z,28.52
2018-08-28T09:28:25.516Z,29.27
2018-08-28T09:29:25.521Z,29.83
2018-08-28T09:30:25.470Z,29.30
2018-08-28T09:31:25.557Z,28.19
2018-08-28T09:32:25.472Z,27.94
2018-08-28T09:33:25.420Z,27.85
2018-08-28T09:34:25.430Z,28.17
2018-08-28T09:35:25.370Z,28.21
2018-08-28T09:36:25.346Z,27.59
2018-08-28T09:37:25.326Z,26.51
2018-08-28T09:38:25.403Z,25.75
2018-08-28T09:39:25.292Z,24.00
2018-08-28T09:40:25.281Z,23.23
2018-08-28T09:41:25.258Z,22.91
2018-08-28T09:42:25.237Z,22.68
2018-08-28T09:43:25.195Z,22.73
2018-08-28T09:44:25.183Z,22.62
2018-08-28T09:45:25.172Z,22.43
2018-08-28T09:46:25.134Z,22.55
2018-08-28T09:47:25.116Z,22.68
2018-08-28T09:48:25.123Z,22.92
2018-08-28T09:49:25.090Z,23.09
2018-08-28T09:50:25.128Z,23.20
2018-08-28T09:51:25.021Z,23.25
2018-08-28T09:52:25.018Z,23.25
2018-08-28T09:53:24.969Z,22.98
2018-08-28T09:54:24.963Z,23.01
2018-08-28T09:55:24.948Z,22.79
2018-08-28T09:56:24.924Z,22.67
2018-08-28T09:57:24.881Z,22.76
2018-08-28T09:58:24.854Z,22.91
2018-08-28T09:59:24.824Z,23.01
2018-08-28T10:00:24.802Z,23.16
2018-08-28T10:01:24.800Z,23.22
2018-08-28T10:02:24.764Z,23.22
2018-08-28T10:03:24.745Z,23.22
2018-08-28T10:04:24.713Z,23.16
2018-08-28T10:05:24.688Z,23.19
2018-08-28T10:06:24.669Z,23.31
2018-08-28T10:07:24.627Z,23.72
2018-08-28T10:08:24.603Z,23.97
2018-08-28T10:09:24.600Z,24.20
2018-08-28T10:10:24.559Z,24.49
2018-08-28T10:11:24.545Z,24.55
2018-08-28T10:12:24.510Z,24.67
2018-08-28T10:13:24.498Z,24.67
2018-08-28T10:14:24.476Z,24.60
2018-08-28T10:15:24.430Z,24.62
2018-08-28T10:16:24.416Z,24.58
2018-08-28T10:17:24.485Z,24.55
2018-08-28T10:18:24.385Z,23.85
2018-08-28T10:19:24.336Z,23.72
2018-08-28T10:20:24.398Z,23.68
2018-08-28T10:21:24.283Z,23.53
2018-08-28T10:22:24.256Z,23.47
2018-08-28T10:23:24.281Z,23.43
2018-08-28T10:24:24.212Z,23.39
2018-08-28T10:25:24.197Z,23.28
2018-08-28T10:26:24.148Z,23.25
2018-08-28T10:27:24.154Z,23.07
2018-08-28T10:28:24.116Z,23.13
2018-08-28T10:29:24.119Z,23.25
2018-08-28T10:30:24.147Z,23.27
2018-08-28T10:31:24.059Z,22.94
2018-08-28T10:32:24.040Z,22.97
2018-08-28T10:33:24.079Z,23.01
2018-08-28T10:34:23.961Z,22.90
2018-08-28T10:35:23.956Z,23.01
2018-08-28T10:36:23.919Z,22.98
2018-08-28T10:37:23.918Z,22.97
2018-08-28T10:38:23.886Z,22.67
2018-08-28T10:39:23.832Z,22.73
2018-08-28T10:40:23.844Z,22.77
2018-08-28T10:41:23.834Z,22.79
2018-08-28T10:42:23.730Z,22.91
2018-08-28T10:43:23.700Z,23.00
2018-08-28T10:44:23.679Z,23.05
2018-08-28T10:45:23.664Z,22.94
2018-08-28T10:46:23.671Z,22.90
2018-08-28T10:47:23.603Z,22.85
2018-08-28T10:48:23.624Z,23.01
2018-08-28T10:49:23.541Z,23.09
2018-08-28T10:50:23.535Z,23.28
2018-08-28T10:51:23.495Z,23.53
2018-08-28T10:52:23.458Z,23.63
2018-08-28T10:53:23.430Z,23.75
2018-08-28T10:54:23.404Z,24.06
2018-08-28T10:55:23.379Z,24.31
2018-08-28T10:56:23.354Z,24.45
2018-08-28T10:57:23.330Z,24.68
2018-08-28T10:58:23.295Z,24.55
2018-08-28T10:59:23.274Z,24.46
2018-08-28T11:00:23.243Z,24.00
2018-08-28T11:01:23.240Z,23.87
2018-08-28T11:02:23.199Z,23.68
2018-08-28T11:03:23.159Z,23.51
2018-08-28T11:04:23.187Z,23.69
2018-08-28T11:05:23.130Z,23.79
2018-08-28T11:06:23.092Z,23.66
2018-08-28T11:07:23.060Z,23.57
2018-08-28T11:08:23.049Z,23.47
2018-08-28T11:09:23.018Z,23.63
2018-08-28T11:10:22.988Z,23.75
2018-08-28T11:11:22.960Z,24.06
2018-08-28T11:12:22.925Z,24.10
2018-08-28T11:13:22.960Z,24.45
2018-08-28T11:14:22.898Z,24.62
2018-08-28T11:15:22.898Z,25.15
2018-08-28T11:16:22.807Z,25.90
2018-08-28T11:17:22.786Z,26.58
2018-08-28T11:18:22.763Z,27.09
2018-08-28T11:19:22.732Z,26.94
2018-08-28T11:20:22.722Z,27.39
2018-08-28T11:21:22.680Z,27.67
2018-08-28T11:22:22.677Z,27.65
2018-08-28T11:23:22.656Z,27.81
2018-08-28T11:24:22.658Z,28.25
2018-08-28T11:25:22.584Z,28.33
2018-08-28T11:26:22.579Z,28.51
2018-08-28T11:27:23.189Z,28.14
2018-08-28T11:28:22.515Z,27.78
2018-08-28T11:29:22.578Z,27.72
2018-08-28T11:30:22.465Z,28.04
2018-08-28T11:31:22.493Z,28.54
2018-08-28T11:32:22.420Z,28.88
2018-08-28T11:33:22.404Z,29.43
2018-08-28T11:34:22.374Z,28.96
2018-08-28T11:35:22.327Z,27.19
2018-08-28T11:36:22.313Z,26.25
2018-08-28T11:37:22.309Z,25.79
2018-08-28T11:38:22.310Z,25.55
2018-08-28T11:39:22.274Z,24.99
2018-08-28T11:40:22.253Z,24.78
2018-08-28T11:41:22.251Z,24.31
2018-08-28T11:42:22.173Z,24.03
2018-08-28T11:43:22.190Z,23.80
2018-08-28T11:44:22.175Z,23.68
2018-08-28T11:45:22.103Z,23.80
2018-08-28T11:46:22.090Z,23.73
2018-08-28T11:47:22.039Z,23.88
2018-08-28T11:48:22.029Z,23.84
2018-08-28T11:49:22.037Z,23.43
2018-08-28T11:50:21.984Z,23.70
2018-08-28T11:51:21.952Z,23.48
2018-08-28T11:52:21.924Z,23.55
2018-08-28T11:53:22.033Z,23.42
2018-08-28T11:54:21.891Z,23.46
2018-08-28T11:55:21.877Z,23.68
2018-08-28T11:56:21.832Z,23.33
2018-08-28T11:57:21.798Z,23.42
2018-08-28T11:58:21.775Z,23.61
2018-08-28T11:59:21.757Z,23.68
2018-08-28T12:00:21.739Z,23.83
2018-08-28T12:01:21.694Z,24.02
2018-08-28T12:02:21.700Z,24.30
2018-08-28T12:03:21.680Z,24.42
2018-08-28T12:04:21.639Z,24.32
2018-08-28T12:05:21.694Z,24.16
2018-08-28T12:06:21.572Z,23.87
2018-08-28T12:07:21.629Z,23.65
2018-08-28T12:08:21.530Z,23.93
2018-08-28T12:09:21.500Z,24.18
2018-08-28T12:10:21.474Z,24.47
2018-08-28T12:11:21.464Z,24.20
2018-08-28T12:12:21.424Z,24.25
2018-08-28T12:13:21.393Z,24.37
2018-08-28T12:14:21.384Z,24.28
2018-08-28T12:15:21.371Z,24.12
2018-08-28T12:16:21.325Z,24.15
2018-08-28T12:17:21.299Z,24.27
2018-08-28T12:18:21.287Z,24.20
2018-08-28T12:19:21.249Z,24.32
2018-08-28T12:20:21.260Z,24.47
2018-08-28T12:21:21.197Z,24.64
2018-08-28T12:22:21.181Z,24.69
2018-08-28T12:23:21.139Z,25.28
2018-08-28T12:24:21.131Z,25.28
2018-08-28T12:25:21.109Z,25.14
2018-08-28T12:26:21.070Z,25.00
2018-08-28T12:27:21.066Z,24.73
2018-08-28T12:28:21.032Z,24.45
2018-08-28T12:29:21.043Z,24.34
2018-08-28T12:30:20.983Z,24.15
2018-08-28T12:31:20.943Z,24.03
2018-08-28T12:32:20.937Z,23.94
2018-08-28T12:33:20.891Z,23.72
2018-08-28T12:34:20.880Z,23.68
2018-08-28T12:35:20.842Z,23.88
2018-08-28T12:36:20.819Z,24.30
2018-08-28T12:37:20.786Z,24.57
2018-08-28T12:38:20.777Z,24.98
2018-08-28T12:39:20.749Z,24.78
2018-08-28T12:40:20.712Z,24.42
2018-08-28T12:41:20.695Z,24.35
2018-08-28T12:42:20.676Z,24.71
2018-08-28T12:43:20.639Z,24.98
2018-08-28T12:44:20.630Z,25.09
2018-08-28T12:45:20.574Z,25.45
2018-08-28T12:46:20.565Z,25.69
2018-08-28T12:47:20.624Z,25.99
2018-08-28T12:48:20.563Z,26.12
2018-08-28T12:49:20.547Z,25.99
2018-08-28T12:50:20.468Z,26.13
2018-08-28T12:51:20.530Z,25.85
2018-08-28T12:52:20.441Z,25.83
2018-08-28T12:53:20.426Z,25.58
2018-08-28T12:54:20.366Z,25.62
2018-08-28T12:55:20.371Z,25.98
2018-08-28T12:56:20.309Z,26.05
2018-08-28T12:57:20.291Z,25.91
2018-08-28T12:58:20.266Z,25.95
2018-08-28T12:59:20.244Z,25.90
2018-08-28T13:00:20.214Z,25.99
2018-08-28T13:01:20.203Z,25.76
2018-08-28T13:02:20.317Z,25.72
2018-08-28T13:03:20.159Z,25.92
2018-08-28T13:04:20.125Z,25.88
2018-08-28T13:05:20.106Z,25.98
2018-08-28T13:06:20.074Z,26.23
2018-08-28T13:07:20.168Z,25.98
2018-08-28T13:08:20.018Z,26.10
2018-08-28T13:09:20.020Z,26.30
2018-08-28T13:10:20.022Z,26.62
2018-08-28T13:11:19.963Z,26.48
2018-08-28T13:12:19.941Z,26.20
2018-08-28T13:13:19.924Z,26.21
2018-08-28T13:14:19.897Z,25.91
2018-08-28T13:15:19.878Z,25.69
2018-08-28T13:16:19.869Z,25.60
2018-08-28T13:17:19.892Z,25.75
2018-08-28T13:18:19.826Z,25.97
2018-08-28T13:19:19.786Z,25.98
2018-08-28T13:20:19.766Z,25.51
2018-08-28T13:21:19.733Z,25.72
2018-08-28T13:22:19.715Z,25.87
2018-08-28T13:23:19.684Z,25.88
2018-08-28T13:24:19.674Z,25.99
2018-08-28T13:25:19.700Z,25.95
2018-08-28T13:26:19.621Z,26.01
2018-08-28T13:27:19.611Z,26.01
2018-08-28T13:28:19.564Z,25.54
2018-08-28T13:29:19.555Z,25.13
2018-08-28T13:30:19.539Z,25.21
2018-08-28T13:31:19.521Z,25.36
2018-08-28T13:32:19.471Z,25.65
2018-08-28T13:33:19.484Z,25.85
2018-08-28T13:34:19.443Z,25.90
2018-08-28T13:35:19.424Z,25.95
2018-08-28T13:36:19.399Z,26.13
2018-08-28T13:37:19.408Z,25.98
2018-08-28T13:38:19.352Z,26.18
2018-08-28T13:39:19.332Z,26.28
2018-08-28T13:40:19.308Z,26.32
2018-08-28T13:41:19.327Z,26.09
2018-08-28T13:42:19.273Z,25.83
2018-08-28T13:43:19.237Z,25.77
2018-08-28T13:44:19.232Z,25.61
2018-08-28T13:45:19.187Z,25.23
2018-08-28T13:46:19.202Z,25.03
2018-08-28T13:47:19.292Z,24.99
2018-08-28T13:48:19.175Z,25.00
2018-08-28T13:49:19.136Z,25.33
2018-08-28T13:50:19.086Z,25.61
2018-08-28T13:51:19.097Z,25.94
2018-08-28T13:52:19.033Z,26.25
2018-08-28T13:53:19.010Z,26.29
2018-08-28T13:54:19.038Z,26.36
2018-08-28T13:55:18.968Z,26.50
2018-08-28T13:56:18.953Z,26.50
2018-08-28T13:57:18.925Z,26.73
2018-08-28T13:58:18.899Z,26.44
2018-08-28T13:59:18.875Z,26.43
2018-08-28T14:00:18.883Z,26.48
2018-08-28T14:01:18.878Z,26.63
2018-08-28T14:02:18.810Z,26.75
2018-08-28T14:03:18.790Z,26.92
2018-08-28T14:04:18.782Z,26.87
2018-08-28T14:05:18.736Z,26.50
2018-08-28T14:06:18.740Z,26.35
2018-08-28T14:07:18.706Z,26.13
2018-08-28T14:08:18.673Z,26.02
2018-08-28T14:09:18.660Z,26.13
2018-08-28T14:10:18.629Z,25.91
2018-08-28T14:11:18.606Z,25.85
2018-08-28T14:12:18.580Z,25.97
2018-08-28T14:13:18.627Z,26.01
2018-08-28T14:14:18.560Z,25.91
2018-08-28T14:15:18.551Z,26.01
2018-08-28T14:16:18.493Z,25.82
2018-08-28T14:17:18.483Z,25.69
2018-08-28T14:18:18.499Z,25.69
2018-08-28T14:19:18.446Z,25.55
2018-08-28T14:20:18.399Z,25.65
2018-08-28T14:21:18.403Z,25.98
2018-08-28T14:22:18.447Z,26.29
2018-08-28T14:23:18.343Z,26.47
2018-08-28T14:24:18.424Z,26.43
2018-08-28T14:25:18.365Z,26.17
2018-08-28T14:26:18.268Z,25.83
2018-08-28T14:27:18.301Z,25.98
2018-08-28T14:28:18.245Z,26.15
2018-08-28T14:29:18.297Z,26.35
2018-08-28T14:30:18.180Z,26.43
2018-08-28T14:31:18.164Z,26.26
2018-08-28T14:32:18.142Z,26.30
2018-08-28T14:33:18.119Z,26.02
2018-08-28T14:34:18.127Z,25.67
2018-08-28T14:35:18.072Z,25.43
2018-08-28T14:36:18.065Z,25.55
2018-08-28T14:37:18.030Z,25.40
2018-08-28T14:38:18.023Z,25.40
2018-08-28T14:39:18.031Z,25.52
2018-08-28T14:40:17.957Z,25.55
2018-08-28T14:41:17.951Z,25.64
2018-08-28T14:42:17.975Z,25.65